Time;durP1;ratioP1;P1;durP2;ratioP2;P2;SDS_P1;SDS_P2;PMS_P1;PMS_P2;Temp;Humidity;BMP_temperature;BMP_pressure;BME280_temperature;BME280_humidity;BME280_pressure;Samples;Min_cycle;Max_cycle;Signal;HPM_P1;HPM_P2
2023/06/26 00:00:15;;;;;;;3.20;2.80;;;27.50;43.50;;;;;;5018810;28;20148;-67
2023/06/26 00:02:41;;;;;;;2.90;2.42;;;27.50;43.50;;;;;;5020518;28;20036;-66
2023/06/26 00:05:07;;;;;;;3.13;2.50;;;27.50;43.50;;;;;;5018402;28;20374;-67
2023/06/26 00:07:36;;;;;;;3.20;2.60;;;27.50;43.60;;;;;;5021559;28;20519;-66
2023/06/26 00:10:03;;;;;;;2.97;2.45;;;27.50;43.60;;;;;;5004911;28;20029;-66
2023/06/26 00:12:29;;;;;;;2.88;2.42;;;27.40;43.50;;;;;;5021567;28;20753;-67
2023/06/26 00:14:54;;;;;;;3.10;2.38;;;27.40;43.50;;;;;;5018899;28;20025;-67
2023/06/26 00:17:20;;;;;;;3.83;2.92;;;27.40;43.50;;;;;;5017622;28;20620;-66
2023/06/26 00:19:46;;;;;;;3.40;2.72;;;27.40;43.60;;;;;;5020507;28;20033;-66
2023/06/26 00:22:12;;;;;;;3.13;2.47;;;27.40;43.50;;;;;;5022011;28;20540;-66
2023/06/26 00:24:37;;;;;;;3.20;2.63;;;27.40;43.50;;;;;;5021135;28;20033;-66
2023/06/26 00:27:03;;;;;;;3.05;2.50;;;27.40;43.60;;;;;;5020869;28;20037;-66
2023/06/26 00:29:29;;;;;;;3.22;2.47;;;27.40;43.60;;;;;;5020210;28;20442;-66
2023/06/26 00:31:54;;;;;;;3.00;2.53;;;27.40;43.60;;;;;;5019002;28;20112;-66
2023/06/26 00:34:20;;;;;;;3.10;2.60;;;27.40;43.60;;;;;;5020655;28;20029;-66
2023/06/26 00:36:45;;;;;;;3.40;2.70;;;27.40;43.60;;;;;;5020356;28;20018;-65
2023/06/26 00:39:11;;;;;;;3.28;2.60;;;27.40;43.60;;;;;;5020437;28;20087;-66
2023/06/26 00:41:37;;;;;;;3.33;2.63;;;27.40;43.60;;;;;;5020056;28;20050;-66
2023/06/26 00:44:06;;;;;;;3.20;2.60;;;27.40;43.70;;;;;;5020946;28;20045;-66
2023/06/26 00:46:32;;;;;;;3.05;2.60;;;27.40;43.70;;;;;;5018872;28;20093;-65
2023/06/26 00:48:59;;;;;;;2.90;2.55;;;27.40;43.70;;;;;;5018859;28;20519;-66
2023/06/26 00:51:28;;;;;;;3.00;2.60;;;27.40;43.70;;;;;;5019313;28;20067;-66
2023/06/26 00:53:54;;;;;;;2.90;2.50;;;27.30;43.70;;;;;;5018387;28;20030;-66
2023/06/26 00:56:20;;;;;;;3.30;2.58;;;27.30;43.60;;;;;;5005829;28;20038;-66
2023/06/26 00:58:46;;;;;;;3.03;2.50;;;27.30;43.70;;;;;;5005994;28;20488;-65
2023/06/26 01:01:21;;;;;;;3.25;2.60;;;27.30;43.70;;;;;;5017283;28;20029;-67
2023/06/26 01:03:51;;;;;;;3.30;2.65;;;27.30;43.80;;;;;;5020423;28;20097;-66
2023/06/26 01:06:18;;;;;;;3.20;2.60;;;27.30;43.70;;;;;;5019366;28;20033;-66
2023/06/26 01:08:45;;;;;;;3.38;2.90;;;27.30;43.70;;;;;;5021151;28;20034;-67
2023/06/26 01:11:12;;;;;;;3.13;2.30;;;27.30;43.70;;;;;;5005449;28;20113;-67
2023/06/26 01:13:39;;;;;;;2.95;2.40;;;27.30;43.80;;;;;;5021980;28;20029;-67
2023/06/26 01:16:05;;;;;;;3.13;2.65;;;27.30;43.70;;;;;;5017812;28;20030;-66
2023/06/26 01:18:32;;;;;;;3.17;2.70;;;27.30;43.80;;;;;;5017680;28;20021;-66
2023/06/26 01:21:01;;;;;;;3.05;2.47;;;27.30;43.80;;;;;;5021084;28;20431;-66
2023/06/26 01:23:41;;;;;;;2.70;2.20;;;27.20;43.70;;;;;;5020387;28;20486;-66
2023/06/26 01:26:20;;;;;;;3.17;2.67;;;27.20;43.70;;;;;;5018208;28;20029;-67
2023/06/26 01:28:46;;;;;;;3.00;2.45;;;27.20;43.70;;;;;;5020613;28;20495;-66
2023/06/26 01:31:13;;;;;;;3.20;2.50;;;27.20;43.70;;;;;;5000536;28;20087;-66
2023/06/26 01:33:40;;;;;;;2.88;2.45;;;27.20;43.80;;;;;;5020336;28;20057;-66
2023/06/26 01:36:07;;;;;;;2.92;2.40;;;27.20;43.80;;;;;;5020317;28;20037;-66
2023/06/26 01:38:32;;;;;;;3.22;2.53;;;27.20;44.30;;;;;;5017687;28;20540;-65
2023/06/26 01:40:59;;;;;;;3.08;2.50;;;27.20;43.80;;;;;;5017051;28;20026;-66
2023/06/26 01:43:49;;;;;;;2.90;2.45;;;27.20;43.80;;;;;;5017378;28;20038;-65
2023/06/26 01:46:30;;;;;;;2.92;2.38;;;27.20;43.80;;;;;;5017647;28;20033;-66
2023/06/26 01:49:16;;;;;;;2.80;2.30;;;27.20;43.80;;;;;;5022472;28;20401;-66
2023/06/26 01:51:46;;;;;;;3.13;2.60;;;27.20;43.80;;;;;;5021236;28;20417;-67
2023/06/26 01:54:18;;;;;;;3.30;2.50;;;27.20;44.40;;;;;;5019065;28;20029;-67
2023/06/26 01:56:48;;;;;;;3.13;2.50;;;27.20;43.90;;;;;;5003602;28;20025;-66
2023/06/26 01:59:15;;;;;;;2.80;2.25;;;27.20;43.90;;;;;;5019971;28;20033;-66
2023/06/26 02:01:41;;;;;;;2.60;2.22;;;27.10;43.90;;;;;;5019833;28;20497;-66
2023/06/26 02:04:06;;;;;;;3.00;2.40;;;27.10;43.90;;;;;;5017618;28;20037;-66
2023/06/26 02:06:32;;;;;;;3.60;2.70;;;27.10;43.90;;;;;;5021285;28;20457;-67
2023/06/26 02:08:58;;;;;;;3.03;2.58;;;27.10;43.90;;;;;;5021098;28;20043;-67
2023/06/26 02:11:24;;;;;;;3.00;2.40;;;27.10;43.90;;;;;;5020875;28;20022;-66
2023/06/26 02:13:49;;;;;;;3.05;2.50;;;27.10;43.90;;;;;;5018727;28;20040;-66
2023/06/26 02:16:15;;;;;;;2.75;2.28;;;27.10;43.90;;;;;;5018202;28;20436;-67
2023/06/26 02:18:41;;;;;;;3.30;2.60;;;27.10;43.90;;;;;;5018326;28;20038;-66
2023/06/26 02:21:07;;;;;;;2.90;2.50;;;27.10;43.90;;;;;;5003966;28;20084;-66
2023/06/26 02:23:33;;;;;;;3.03;2.42;;;27.10;43.90;;;;;;5019897;28;20394;-66
2023/06/26 02:25:58;;;;;;;2.72;2.20;;;27.10;44.00;;;;;;5018022;28;20057;-67
2023/06/26 02:28:24;;;;;;;2.92;2.40;;;27.10;44.00;;;;;;5017692;28;20485;-65
2023/06/26 02:30:50;;;;;;;3.05;2.50;;;27.10;44.00;;;;;;5018742;28;20381;-66
2023/06/26 02:33:15;;;;;;;2.95;2.40;;;27.10;44.00;;;;;;5017512;28;20034;-66
2023/06/26 02:35:41;;;;;;;3.03;2.20;;;27.00;44.00;;;;;;5001951;28;20426;-66
2023/06/26 02:38:07;;;;;;;2.90;2.60;;;27.00;44.00;;;;;;5019352;28;20055;-66
2023/06/26 02:40:33;;;;;;;2.80;2.42;;;27.00;44.00;;;;;;5018015;28;20057;-66
2023/06/26 02:42:58;;;;;;;2.90;2.35;;;27.10;44.00;;;;;;5017727;28;20033;-67
2023/06/26 02:45:24;;;;;;;2.92;2.50;;;27.00;44.00;;;;;;5017573;28;20033;-66
2023/06/26 02:47:50;;;;;;;3.20;2.67;;;27.00;44.00;;;;;;5017220;28;20033;-66
2023/06/26 02:50:15;;;;;;;3.08;2.30;;;27.00;44.00;;;;;;5020917;28;20026;-67
2023/06/26 02:52:41;;;;;;;2.90;2.30;;;27.00;44.00;;;;;;5020165;28;20033;-66
2023/06/26 02:55:07;;;;;;;2.95;2.40;;;27.00;44.00;;;;;;5017608;28;20029;-66
2023/06/26 02:57:32;;;;;;;3.10;2.53;;;27.00;44.00;;;;;;5017167;28;20168;-66
2023/06/26 02:59:58;;;;;;;2.90;2.50;;;27.00;44.00;;;;;;5018929;28;20038;-66
2023/06/26 03:02:23;;;;;;;3.00;2.45;;;27.00;44.10;;;;;;5018460;28;20053;-66
2023/06/26 03:04:49;;;;;;;2.90;2.17;;;27.00;44.10;;;;;;5020887;28;20365;-67
2023/06/26 03:07:15;;;;;;;2.80;2.35;;;27.00;44.10;;;;;;5020260;28;20033;-66
2023/06/26 03:09:41;;;;;;;2.75;2.45;;;27.00;44.10;;;;;;5017399;28;20473;-66
2023/06/26 03:12:07;;;;;;;3.25;2.50;;;27.00;44.10;;;;;;5017985;28;20086;-66
2023/06/26 03:14:33;;;;;;;3.08;2.60;;;27.00;44.10;;;;;;5015657;28;20026;-66
2023/06/26 03:17:03;;;;;;;2.65;2.15;;;26.90;44.00;;;;;;5016444;28;20047;-66
2023/06/26 03:19:28;;;;;;;2.67;2.20;;;27.00;44.10;;;;;;5022290;28;20469;-67
2023/06/26 03:21:55;;;;;;;2.88;2.33;;;26.90;44.00;;;;;;5020230;28;20046;-66
2023/06/26 03:24:20;;;;;;;2.72;2.35;;;27.00;44.40;;;;;;5017558;28;20462;-67
2023/06/26 03:26:46;;;;;;;2.85;2.15;;;26.90;44.10;;;;;;5014479;28;20110;-66
2023/06/26 03:29:11;;;;;;;2.75;2.17;;;26.90;44.10;;;;;;5017185;28;20117;-66
2023/06/26 03:31:37;;;;;;;3.00;2.35;;;26.90;44.10;;;;;;5017853;28;20017;-66
2023/06/26 03:34:03;;;;;;;3.00;2.30;;;26.90;44.10;;;;;;5022250;28;20037;-67
2023/06/26 03:36:28;;;;;;;3.00;2.33;;;26.90;44.10;;;;;;5020153;28;20109;-68
2023/06/26 03:38:56;;;;;;;3.00;2.47;;;26.90;44.10;;;;;;5018119;28;20034;-68
2023/06/26 03:41:23;;;;;;;2.72;2.33;;;26.90;44.10;;;;;;5019095;28;20029;-68
2023/06/26 03:43:48;;;;;;;3.00;2.47;;;26.90;44.60;;;;;;5022134;28;20025;-68
2023/06/26 03:46:14;;;;;;;2.90;2.30;;;26.90;44.10;;;;;;5019175;28;20061;-68
2023/06/26 03:48:40;;;;;;;3.00;2.60;;;26.90;44.10;;;;;;5005305;28;20026;-67
2023/06/26 03:51:06;;;;;;;2.80;2.35;;;26.90;44.10;;;;;;5022487;28;20520;-67
2023/06/26 03:53:32;;;;;;;3.42;2.67;;;26.90;44.10;;;;;;5006671;28;20072;-68
2023/06/26 03:55:58;;;;;;;3.17;2.30;;;26.90;44.10;;;;;;5012283;28;20041;-68
2023/06/26 03:58:24;;;;;;;3.40;2.40;;;26.80;43.70;;;;;;5020366;28;20687;-68
2023/06/26 04:00:50;;;;;;;3.22;2.80;;;26.90;43.20;;;;;;5005247;28;20030;-67
2023/06/26 04:03:16;;;;;;;4.28;2.90;;;26.80;42.70;;;;;;5019252;28;20436;-67
2023/06/26 04:05:42;;;;;;;3.50;2.90;;;26.80;42.40;;;;;;5021922;28;20473;-67
2023/06/26 04:08:08;;;;;;;3.40;3.03;;;26.80;42.10;;;;;;5006753;28;20047;-67
2023/06/26 04:10:33;;;;;;;3.88;3.33;;;26.70;41.80;;;;;;5021377;28;20057;-67
2023/06/26 04:12:59;;;;;;;4.15;3.40;;;26.70;41.70;;;;;;5010410;28;20512;-67
2023/06/26 04:15:25;;;;;;;4.13;3.40;;;26.70;41.70;;;;;;5019764;28;20041;-67
2023/06/26 04:17:50;;;;;;;4.32;3.38;;;26.60;41.70;;;;;;5019478;28;20022;-67
2023/06/26 04:20:16;;;;;;;3.58;3.10;;;26.60;41.70;;;;;;5022165;28;20030;-68
2023/06/26 04:22:42;;;;;;;4.20;3.33;;;26.60;41.60;;;;;;5022241;28;20021;-68
2023/06/26 04:25:08;;;;;;;4.15;3.50;;;26.60;41.60;;;;;;5020558;28;20032;-68
2023/06/26 04:27:33;;;;;;;3.63;3.17;;;26.50;41.60;;;;;;5020037;28;20041;-68
2023/06/26 04:29:59;;;;;;;4.07;3.58;;;26.50;41.50;;;;;;5003931;28;20385;-67
2023/06/26 04:32:25;;;;;;;5.57;4.10;;;26.50;41.50;;;;;;5017967;28;20026;-67
2023/06/26 04:34:50;;;;;;;5.15;4.30;;;26.50;41.40;;;;;;5020751;28;20424;-67
2023/06/26 04:37:17;;;;;;;5.15;4.43;;;26.50;41.40;;;;;;5020805;28;20049;-67
2023/06/26 04:39:42;;;;;;;5.70;4.40;;;26.40;41.90;;;;;;5019113;28;20486;-67
2023/06/26 04:42:10;;;;;;;5.18;4.55;;;26.40;42.00;;;;;;5018127;28;20033;-67
2023/06/26 04:44:37;;;;;;;4.38;3.90;;;26.40;41.50;;;;;;5021370;28;20053;-67
2023/06/26 04:47:03;;;;;;;4.55;3.92;;;26.40;41.40;;;;;;5018786;28;20022;-67
2023/06/26 04:49:29;;;;;;;5.15;3.90;;;26.40;41.50;;;;;;5020575;28;20393;-67
2023/06/26 04:51:55;;;;;;;4.20;3.70;;;26.30;41.50;;;;;;5021435;28;20029;-67
2023/06/26 04:54:21;;;;;;;4.90;3.55;;;26.30;41.60;;;;;;5019938;28;20338;-68
2023/06/26 04:56:47;;;;;;;4.30;3.60;;;26.30;41.70;;;;;;5017066;28;20018;-67
2023/06/26 04:59:14;;;;;;;4.40;3.47;;;26.30;41.80;;;;;;5018469;28;20091;-67
2023/06/26 05:01:40;;;;;;;4.10;3.40;;;26.30;41.80;;;;;;5018652;28;20025;-67
2023/06/26 05:04:07;;;;;;;3.92;3.25;;;26.30;41.90;;;;;;5019159;28;20478;-67
2023/06/26 05:06:32;;;;;;;4.13;3.38;;;26.30;42.00;;;;;;5020656;28;20033;-67
2023/06/26 05:08:58;;;;;;;4.35;3.35;;;26.30;42.10;;;;;;5019826;28;20032;-68
2023/06/26 05:11:25;;;;;;;4.80;3.83;;;26.30;42.10;;;;;;5017282;28;20030;-68
2023/06/26 05:13:51;;;;;;;4.40;3.30;;;26.30;42.20;;;;;;5018020;28;20545;-68
2023/06/26 05:16:17;;;;;;;4.53;3.63;;;26.30;42.20;;;;;;5019562;28;20109;-67
2023/06/26 05:18:42;;;;;;;3.90;3.50;;;26.30;42.30;;;;;;5018496;28;20072;-68
2023/06/26 05:21:08;;;;;;;4.07;3.65;;;26.30;42.40;;;;;;5004704;28;20063;-68
2023/06/26 05:23:34;;;;;;;4.20;3.35;;;26.30;42.40;;;;;;5018774;28;20481;-67
2023/06/26 05:26:04;;;;;;;3.83;3.38;;;26.30;42.40;;;;;;5018904;28;20022;-67
2023/06/26 05:28:31;;;;;;;;;;;26.30;42.50;;;;;;5019475;28;20390;-68
2023/06/26 05:30:57;;;;;;;3.70;3.20;;;26.30;42.50;;;;;;5019102;28;20414;-68
2023/06/26 05:33:24;;;;;;;3.88;3.00;;;26.30;42.50;;;;;;5015974;28;20054;-68
2023/06/26 05:35:54;;;;;;;3.50;3.13;;;26.30;42.60;;;;;;5018919;28;20042;-68
2023/06/26 05:38:20;;;;;;;4.78;3.20;;;26.30;42.60;;;;;;5017898;28;20041;-68
2023/06/26 05:40:46;;;;;;;4.28;3.28;;;26.30;42.70;;;;;;5018741;28;20084;-68
2023/06/26 05:43:12;;;;;;;4.50;3.45;;;26.30;42.70;;;;;;5018440;28;20033;-68
2023/06/26 05:45:38;;;;;;;3.80;3.40;;;26.30;42.80;;;;;;5018800;28;20049;-68
2023/06/26 05:48:04;;;;;;;4.07;3.00;;;26.20;42.80;;;;;;5016998;28;20029;-68
2023/06/26 05:50:30;;;;;;;4.22;3.33;;;26.30;42.90;;;;;;5019047;28;20390;-68
2023/06/26 05:52:56;;;;;;;3.70;3.30;;;26.20;42.80;;;;;;5018485;28;20041;-68
2023/06/26 05:55:22;;;;;;;4.65;3.17;;;26.20;42.80;;;;;;5019200;28;20060;-68
2023/06/26 05:57:49;;;;;;;4.47;3.60;;;26.20;42.80;;;;;;5004275;28;20075;-68
2023/06/26 06:00:15;;;;;;;4.57;3.70;;;26.30;44.90;;;;;;5018991;28;20466;-68
2023/06/26 06:02:42;;;;;;;4.30;3.80;;;26.30;45.10;;;;;;5015182;28;20130;-68
2023/06/26 06:05:08;;;;;;;5.40;4.20;;;26.30;44.50;;;;;;5017654;28;20457;-68
2023/06/26 06:07:34;;;;;;;6.80;4.25;;;26.30;44.70;;;;;;5018844;28;20030;-67
2023/06/26 06:10:01;;;;;;;4.78;4.28;;;26.30;44.40;;;;;;5018968;28;20086;-67
2023/06/26 06:12:27;;;;;;;4.53;4.10;;;26.30;44.10;;;;;;4999954;28;20025;-67
2023/06/26 06:14:53;;;;;;;4.60;3.88;;;26.30;44.80;;;;;;5017185;28;20029;-67
2023/06/26 06:17:20;;;;;;;5.30;4.10;;;26.30;44.50;;;;;;5019197;28;20389;-67
2023/06/26 06:19:45;;;;;;;4.95;4.18;;;26.30;44.80;;;;;;5019721;28;20936;-67
2023/06/26 06:22:11;;;;;;;5.15;4.45;;;26.30;45.20;;;;;;5003950;28;20116;-67
2023/06/26 06:24:37;;;;;;;4.47;4.07;;;26.30;45.20;;;;;;5019085;28;20030;-67
2023/06/26 06:27:03;;;;;;;5.20;4.30;;;26.40;45.20;;;;;;5018881;28;20036;-67
2023/06/26 06:29:29;;;;;;;5.47;4.38;;;26.40;45.60;;;;;;5017905;28;20452;-67
2023/06/26 06:31:54;;;;;;;4.97;3.88;;;26.30;45.50;;;;;;5005275;28;20033;-67
2023/06/26 06:34:20;;;;;;;5.43;4.43;;;26.40;46.00;;;;;;5017244;28;20494;-67
2023/06/26 06:36:46;;;;;;;5.43;4.40;;;26.40;45.80;;;;;;5016803;28;20078;-67
2023/06/26 06:39:12;;;;;;;5.00;4.40;;;26.40;45.40;;;;;;5019700;28;20501;-67
2023/06/26 06:41:38;;;;;;;5.50;4.55;;;26.40;45.10;;;;;;5017713;28;20018;-67
2023/06/26 06:44:04;;;;;;;4.82;4.30;;;26.40;45.80;;;;;;5015496;28;20119;-67
2023/06/26 06:46:29;;;;;;;4.45;3.97;;;26.40;45.80;;;;;;5016431;28;20233;-67
2023/06/26 06:48:56;;;;;;;4.18;3.78;;;26.40;45.90;;;;;;5015339;28;20034;-67
2023/06/26 06:51:22;;;;;;;3.95;3.42;;;26.40;45.50;;;;;;5020368;28;20041;-67
2023/06/26 06:53:47;;;;;;;4.88;4.00;;;26.50;45.50;;;;;;5002749;28;20050;-67
2023/06/26 06:56:13;;;;;;;5.35;4.30;;;26.50;45.50;;;;;;5000723;28;20485;-67
2023/06/26 06:58:42;;;;;;;5.40;4.03;;;26.50;45.70;;;;;;5015730;28;20524;-67
2023/06/26 07:01:11;;;;;;;5.88;4.35;;;26.50;45.70;;;;;;5016213;28;20493;-67
2023/06/26 07:03:37;;;;;;;4.97;4.15;;;26.50;45.70;;;;;;5015087;28;20026;-67
2023/06/26 07:06:03;;;;;;;5.40;3.97;;;26.60;45.30;;;;;;5002773;28;20119;-67
2023/06/26 07:08:29;;;;;;;4.85;3.88;;;26.50;45.20;;;;;;5017287;28;20037;-69
2023/06/26 07:10:56;;;;;;;4.70;4.05;;;26.60;45.50;;;;;;5017845;28;20596;-69
2023/06/26 07:13:22;;;;;;;4.95;4.13;;;26.60;45.50;;;;;;5016491;28;20033;-69
2023/06/26 07:15:47;;;;;;;5.13;3.83;;;26.60;46.10;;;;;;5017575;28;20100;-69
2023/06/26 07:18:13;;;;;;;4.70;4.10;;;26.60;45.40;;;;;;5019157;28;20108;-69
2023/06/26 07:20:39;;;;;;;5.28;4.43;;;26.60;46.00;;;;;;5021290;28;20053;-68
2023/06/26 07:23:05;;;;;;;4.50;4.00;;;26.70;45.30;;;;;;5020793;28;20373;-67
2023/06/26 07:25:30;;;;;;;4.45;3.70;;;26.70;45.60;;;;;;5021351;28;20026;-67
2023/06/26 07:27:56;;;;;;;4.38;3.60;;;26.80;45.50;;;;;;5008894;28;20034;-69
2023/06/26 07:30:21;;;;;;;4.45;3.83;;;26.80;45.30;;;;;;5020381;28;20515;-69
2023/06/26 07:32:47;;;;;;;4.05;3.50;;;26.80;45.40;;;;;;5021553;28;20022;-69
2023/06/26 07:35:13;;;;;;;4.00;3.58;;;26.80;45.70;;;;;;5021886;28;20061;-69
2023/06/26 07:37:38;;;;;;;4.75;3.95;;;26.80;45.60;;;;;;5021323;28;20045;-69
2023/06/26 07:40:04;;;;;;;4.70;3.95;;;26.80;45.10;;;;;;5023092;28;20029;-69
2023/06/26 07:42:30;;;;;;;4.03;3.60;;;26.80;45.10;;;;;;5021624;28;20025;-69
2023/06/26 07:44:55;;;;;;;4.55;4.00;;;26.80;45.20;;;;;;5004606;28;20029;-69
2023/06/26 07:47:21;;;;;;;5.05;3.90;;;26.90;45.00;;;;;;5020480;28;20088;-70
2023/06/26 07:49:47;;;;;;;5.00;4.32;;;26.90;45.00;;;;;;5020548;28;20080;-67
2023/06/26 07:52:14;;;;;;;4.32;3.38;;;26.90;44.80;;;;;;5021174;28;20073;-67
2023/06/26 07:54:40;;;;;;;4.22;3.70;;;26.90;45.00;;;;;;5021196;28;20049;-67
2023/06/26 07:57:11;;;;;;;4.25;3.67;;;26.90;45.00;;;;;;5019993;28;20029;-67
2023/06/26 07:59:36;;;;;;;6.00;3.90;;;27.00;45.00;;;;;;5019356;28;20018;-67
2023/06/26 08:02:02;;;;;;;5.32;4.00;;;27.00;45.00;;;;;;5020505;28;20430;-67
2023/06/26 08:04:32;;;;;;;4.45;3.90;;;27.00;45.00;;;;;;5022785;28;20084;-67
2023/06/26 08:06:58;;;;;;;4.97;4.10;;;27.00;45.30;;;;;;5019795;28;20037;-67
2023/06/26 08:09:27;;;;;;;4.95;4.28;;;27.00;45.30;;;;;;5021163;28;20029;-67
2023/06/26 08:11:53;;;;;;;4.78;3.90;;;27.00;45.50;;;;;;5020189;28;20456;-67
2023/06/26 08:14:19;;;;;;;5.07;4.00;;;27.00;45.30;;;;;;5010178;28;20092;-67
2023/06/26 08:16:45;;;;;;;5.05;4.53;;;27.00;45.30;;;;;;5020701;28;20493;-67
2023/06/26 08:19:12;;;;;;;4.32;3.88;;;27.00;45.20;;;;;;5020074;28;20026;-67
2023/06/26 08:21:38;;;;;;;4.53;3.80;;;27.00;45.10;;;;;;5022282;28;20039;-67
2023/06/26 08:24:03;;;;;;;3.90;3.50;;;27.00;45.40;;;;;;5007649;28;20397;-67
2023/06/26 08:26:29;;;;;;;4.30;3.75;;;27.00;45.30;;;;;;5020059;28;20029;-67
2023/06/26 08:28:55;;;;;;;4.28;3.80;;;27.10;45.20;;;;;;5019859;28;20068;-67
2023/06/26 08:31:20;;;;;;;5.93;4.10;;;27.10;45.50;;;;;;5021679;28;20034;-67
2023/06/26 08:33:47;;;;;;;4.68;3.97;;;27.10;45.20;;;;;;5018043;28;20026;-67
2023/06/26 08:36:13;;;;;;;5.10;4.00;;;27.10;44.90;;;;;;5017427;28;20034;-67
2023/06/26 08:38:40;;;;;;;5.65;3.90;;;27.10;45.20;;;;;;5017775;28;20068;-67
2023/06/26 08:41:07;;;;;;;4.13;3.60;;;27.20;45.00;;;;;;5019743;28;20014;-67
2023/06/26 08:43:34;;;;;;;4.78;4.00;;;27.20;45.40;;;;;;5019479;28;20133;-68
2023/06/26 08:46:00;;;;;;;4.63;4.13;;;27.20;45.20;;;;;;5021790;28;20473;-68
2023/06/26 08:48:26;;;;;;;5.25;3.90;;;27.20;45.20;;;;;;5018282;28;20039;-68
2023/06/26 08:50:56;;;;;;;4.82;3.88;;;27.20;45.10;;;;;;5022015;28;20029;-68
2023/06/26 08:53:57;;;;;;;4.82;3.90;;;27.20;45.30;;;;;;5019400;28;20124;-68
2023/06/26 08:56:24;;;;;;;4.10;3.70;;;27.20;45.30;;;;;;5021294;28;20033;-68
2023/06/26 08:58:50;;;;;;;4.40;3.83;;;27.20;45.30;;;;;;5019183;28;20060;-68
2023/06/26 09:01:17;;;;;;;4.13;3.60;;;27.20;45.20;;;;;;5019568;28;20358;-68
2023/06/26 09:03:43;;;;;;;5.32;3.70;;;27.20;45.30;;;;;;5009807;28;20495;-68
2023/06/26 09:06:08;;;;;;;4.05;3.60;;;27.30;45.10;;;;;;5017120;28;20152;-68
2023/06/26 09:08:34;;;;;;;4.20;3.30;;;27.30;44.90;;;;;;5020602;28;20424;-68
2023/06/26 09:11:00;;;;;;;3.88;3.38;;;27.30;44.90;;;;;;5018867;28;20037;-68
2023/06/26 09:13:28;;;;;;;4.65;3.72;;;27.30;45.10;;;;;;5022219;28;20038;-68
2023/06/26 09:15:55;;;;;;;4.20;3.60;;;27.30;45.00;;;;;;5020714;28;20508;-68
2023/06/26 09:18:21;;;;;;;4.20;3.40;;;27.40;45.20;;;;;;5002123;28;21020;-68
2023/06/26 09:20:48;;;;;;;4.55;3.53;;;27.40;45.20;;;;;;5015743;28;20025;-68
2023/06/26 09:23:13;;;;;;;4.30;3.72;;;27.40;45.10;;;;;;5002796;28;20062;-68
2023/06/26 09:25:40;;;;;;;4.47;3.80;;;27.30;45.00;;;;;;5020558;28;20442;-67
2023/06/26 09:28:07;;;;;;;5.00;3.40;;;27.30;45.10;;;;;;5018354;28;20034;-67
2023/06/26 09:30:33;;;;;;;4.93;3.60;;;27.40;44.90;;;;;;5018177;28;20029;-68
2023/06/26 09:33:15;;;;;;;4.53;3.33;;;27.40;44.90;;;;;;5023463;28;20030;-68
2023/06/26 09:35:41;;;;;;;4.78;3.58;;;27.40;44.90;;;;;;5020678;28;20029;-68
2023/06/26 09:38:07;;;;;;;4.03;3.58;;;27.40;45.00;;;;;;5020254;28;20127;-68
2023/06/26 09:40:34;;;;;;;5.65;3.80;;;27.40;45.10;;;;;;5003500;28;20470;-68
2023/06/26 09:43:04;;;;;;;4.07;3.67;;;27.40;45.20;;;;;;5019437;28;20021;-67
2023/06/26 09:45:32;;;;;;;4.35;3.90;;;27.50;45.40;;;;;;5017409;28;20027;-67
2023/06/26 09:48:02;;;;;;;4.07;3.50;;;27.50;45.30;;;;;;5018218;28;20033;-67
2023/06/26 09:50:28;;;;;;;4.07;3.22;;;27.50;45.20;;;;;;5017628;28;20061;-67
2023/06/26 09:52:55;;;;;;;4.68;3.35;;;27.50;45.30;;;;;;5015795;28;20029;-68
2023/06/26 09:55:23;;;;;;;4.05;3.03;;;27.50;45.20;;;;;;5018508;28;20105;-67
2023/06/26 09:57:50;;;;;;;3.83;3.28;;;27.50;45.00;;;;;;5019103;28;20178;-68
2023/06/26 10:00:16;;;;;;;4.97;3.20;;;27.60;45.50;;;;;;5016271;28;20164;-68
2023/06/26 10:02:42;;;;;;;4.38;3.60;;;27.60;45.20;;;;;;5017815;28;20136;-68
2023/06/26 10:05:07;;;;;;;4.28;3.80;;;27.50;44.80;;;;;;5019477;28;20025;-68
2023/06/26 10:07:35;;;;;;;4.28;3.65;;;27.50;44.70;;;;;;5008198;28;20037;-68
2023/06/26 10:10:02;;;;;;;4.65;3.70;;;27.50;44.70;;;;;;5020592;28;20018;-68
2023/06/26 10:12:30;;;;;;;4.30;3.67;;;27.50;44.80;;;;;;5020116;28;20033;-68
2023/06/26 10:14:57;;;;;;;4.22;3.70;;;27.50;44.80;;;;;;5019119;28;20029;-66
2023/06/26 10:17:27;;;;;;;4.40;3.28;;;27.50;44.80;;;;;;5029818;28;20021;-68
2023/06/26 10:19:56;;;;;;;4.22;3.60;;;27.50;45.30;;;;;;5019766;28;20017;-67
2023/06/26 10:22:25;;;;;;;4.53;3.72;;;27.50;45.10;;;;;;5018558;28;20489;-67
2023/06/26 10:24:52;;;;;;;4.10;3.53;;;27.60;45.00;;;;;;5019278;28;20041;-68
2023/06/26 10:27:20;;;;;;;4.10;3.33;;;27.60;44.90;;;;;;5018512;28;20037;-67
2023/06/26 10:29:58;;;;;;;4.20;3.42;;;27.60;44.90;;;;;;5003437;28;20512;-68
2023/06/26 10:32:26;;;;;;;4.30;3.55;;;27.60;44.80;;;;;;5020112;28;20114;-68
2023/06/26 10:34:52;;;;;;;4.55;3.65;;;27.60;44.90;;;;;;5020018;28;20043;-68
2023/06/26 10:37:18;;;;;;;3.70;3.22;;;27.60;44.80;;;;;;5019264;28;20117;-68
2023/06/26 10:39:51;;;;;;;3.50;3.10;;;27.60;44.80;;;;;;5005168;28;20181;-68
2023/06/26 10:42:18;;;;;;;4.18;3.30;;;27.60;44.80;;;;;;5018553;28;20024;-68
2023/06/26 10:44:45;;;;;;;4.65;3.80;;;27.60;44.80;;;;;;5019167;28;20079;-68
2023/06/26 10:47:31;;;;;;;4.03;3.50;;;27.60;44.80;;;;;;5021009;28;20512;-70
2023/06/26 10:49:57;;;;;;;5.35;3.53;;;27.60;44.80;;;;;;5016867;28;20088;-68
2023/06/26 10:52:26;;;;;;;4.28;3.30;;;27.60;45.00;;;;;;5020514;28;20389;-68
2023/06/26 10:54:55;;;;;;;3.95;3.20;;;27.60;44.90;;;;;;5012800;28;20497;-68
2023/06/26 10:57:25;;;;;;;4.60;3.60;;;27.70;44.80;;;;;;5024098;28;20045;-68
2023/06/26 11:00:13;;;;;;;5.45;3.90;;;27.70;44.70;;;;;;5008517;28;20493;-68
2023/06/26 11:02:52;;;;;;;4.10;3.30;;;27.60;44.60;;;;;;5022249;28;20497;-69
2023/06/26 11:05:28;;;;;;;3.83;3.42;;;27.60;44.70;;;;;;5022753;28;20041;-68
2023/06/26 11:08:07;;;;;;;4.22;3.72;;;27.60;44.70;;;;;;5020157;28;20470;-68
2023/06/26 11:10:52;;;;;;;4.25;3.47;;;27.60;44.70;;;;;;5023665;28;20544;-68
2023/06/26 11:13:20;;;;;;;4.35;3.88;;;27.60;44.70;;;;;;5022101;28;20512;-69
2023/06/26 11:15:50;;;;;;;3.88;3.08;;;27.60;44.70;;;;;;5012640;28;20029;-68
2023/06/26 11:18:16;;;;;;;3.80;3.13;;;27.60;45.00;;;;;;5022291;28;20104;-70
2023/06/26 11:20:42;;;;;;;3.72;3.03;;;27.60;44.90;;;;;;5020092;28;20026;-69
2023/06/26 11:23:09;;;;;;;3.97;3.20;;;27.60;44.80;;;;;;5022165;28;20362;-69
2023/06/26 11:25:38;;;;;;;3.70;3.17;;;27.70;44.80;;;;;;5023654;28;20575;-69
2023/06/26 11:28:05;;;;;;;3.63;3.28;;;27.70;44.80;;;;;;5025354;28;20033;-68
2023/06/26 11:30:31;;;;;;;3.35;2.90;;;27.70;44.80;;;;;;5018293;28;20107;-68
2023/06/26 11:33:04;;;;;;;4.22;3.10;;;27.70;44.90;;;;;;5022529;28;20488;-68
2023/06/26 11:35:30;;;;;;;3.60;2.97;;;27.70;44.80;;;;;;5017719;28;20139;-68
2023/06/26 11:37:59;;;;;;;3.60;3.20;;;27.80;44.90;;;;;;5004203;28;20450;-68
2023/06/26 11:40:31;;;;;;;;;;;27.80;45.00;;;;;;5006520;28;20443;-69
2023/06/26 11:42:58;;;;;;;3.40;3.05;;;27.80;45.20;;;;;;5011967;28;20285;-69
2023/06/26 11:45:23;;;;;;;3.50;2.90;;;27.80;45.10;;;;;;5021274;28;20034;-69
2023/06/26 11:47:49;;;;;;;3.30;2.90;;;27.80;45.30;;;;;;5022071;28;20497;-69
2023/06/26 11:50:17;;;;;;;3.40;3.00;;;27.80;45.30;;;;;;5020028;28;20501;-69
2023/06/26 11:52:43;;;;;;;3.92;3.13;;;27.90;45.10;;;;;;5021282;28;20021;-69
2023/06/26 11:55:10;;;;;;;3.55;2.85;;;27.90;45.10;;;;;;5020620;28;20382;-70
2023/06/26 11:57:36;;;;;;;3.53;3.00;;;27.90;45.20;;;;;;5021562;28;20029;-69
2023/06/26 12:00:16;;;;;;;3.55;3.13;;;27.90;45.10;;;;;;5017574;28;20025;-69
2023/06/26 12:02:42;;;;;;;3.88;2.70;;;27.90;45.60;;;;;;5002916;28;20527;-70
2023/06/26 12:05:09;;;;;;;4.82;3.47;;;27.90;45.10;;;;;;5020525;28;20038;-69
2023/06/26 12:07:36;;;;;;;3.95;3.20;;;27.90;45.10;;;;;;5021183;28;20044;-70
2023/06/26 12:10:03;;;;;;;5.30;3.05;;;28.00;45.50;;;;;;5020182;28;20053;-69
2023/06/26 12:12:29;;;;;;;4.95;3.00;;;27.90;45.40;;;;;;5020918;28;20029;-69
2023/06/26 12:14:55;;;;;;;3.60;2.85;;;27.90;45.80;;;;;;5019701;28;20037;-69
2023/06/26 12:17:23;;;;;;;3.40;2.85;;;28.00;46.20;;;;;;5022135;28;20389;-70
2023/06/26 12:19:49;;;;;;;3.88;3.03;;;28.00;46.00;;;;;;5020957;28;20149;-68
2023/06/26 12:22:16;;;;;;;3.28;2.90;;;28.00;45.80;;;;;;5020605;28;20046;-67
2023/06/26 12:24:43;;;;;;;3.72;2.90;;;28.00;46.10;;;;;;5021239;28;20116;-66
2023/06/26 12:27:13;;;;;;;3.05;2.75;;;28.00;45.80;;;;;;5019096;28;20025;-67
2023/06/26 12:29:40;;;;;;;3.30;2.90;;;28.10;46.20;;;;;;5020205;28;20108;-68
2023/06/26 12:32:10;;;;;;;4.13;3.13;;;28.10;46.70;;;;;;5021118;28;20113;-67
2023/06/26 12:34:37;;;;;;;3.38;2.90;;;28.10;46.40;;;;;;5020887;28;20029;-68
2023/06/26 12:37:13;;;;;;;3.55;3.10;;;28.10;46.00;;;;;;5020399;28;20053;-67
2023/06/26 12:39:48;;;;;;;4.88;3.20;;;28.10;46.40;;;;;;5020665;28;20056;-67
2023/06/26 12:42:19;;;;;;;3.75;3.10;;;28.10;46.00;;;;;;5019929;28;20028;-66
2023/06/26 12:44:45;;;;;;;3.70;2.88;;;28.10;46.20;;;;;;5019025;28;20401;-68
2023/06/26 12:47:13;;;;;;;3.95;2.80;;;28.20;46.60;;;;;;5019661;28;20025;-67